createdAt,value
2023-03-03T00:04:46.210Z,76.29
2023-03-03T00:09:47.786Z,76.33
2023-03-03T00:14:49.258Z,76.48
2023-03-03T00:19:51.578Z,76.64
2023-03-03T00:24:53.941Z,76.60
2023-03-03T00:29:58.171Z,77.74
2023-03-03T00:35:24.583Z,78.10
2023-03-03T00:40:36.397Z,78.62
2023-03-03T00:45:43.933Z,78.15
2023-03-03T00:50:45.412Z,78.29
2023-03-03T00:55:48.412Z,78.26
2023-03-03T01:00:51.931Z,78.32
2023-03-03T01:05:54.058Z,78.63
2023-03-03T01:10:58.861Z,78.51
2023-03-03T01:16:02.190Z,77.72
2023-03-03T01:21:04.076Z,78.34
2023-03-03T01:26:05.747Z,78.81
2023-03-03T01:31:07.417Z,78.13
2023-03-03T01:36:09.356Z,78.49
2023-03-03T01:41:10.771Z,78.65
2023-03-03T01:46:50.964Z,79.05
2023-03-03T01:51:56.773Z,78.79
2023-03-03T01:57:03.281Z,78.68
2023-03-03T02:02:05.449Z,79.12
2023-03-03T02:07:11.133Z,79.26
2023-03-03T02:12:15.452Z,79.18
2023-03-03T02:17:17.253Z,79.26
2023-03-03T02:22:27.042Z,79.79
2023-03-03T02:27:31.645Z,80.34
2023-03-03T02:32:33.073Z,80.16
2023-03-03T02:37:34.965Z,80.33
2023-03-03T02:42:36.724Z,81.63
2023-03-03T02:47:38.211Z,81.96
2023-03-03T02:52:39.634Z,81.82
2023-03-03T02:57:41.109Z,81.68
2023-03-03T03:02:42.537Z,82.54
2023-03-03T03:07:43.957Z,82.11
2023-03-03T03:12:45.376Z,82.36
2023-03-03T03:17:46.845Z,82.32
2023-03-03T03:22:48.359Z,82.58
2023-03-03T03:34:11.555Z,82.25
2023-03-03T03:39:13.355Z,82.27
2023-03-03T03:44:14.949Z,83.34
2023-03-03T03:49:16.634Z,83.38
2023-03-03T03:54:18.126Z,83.15
2023-03-03T03:59:19.525Z,82.40
2023-03-03T04:04:21.076Z,82.98
2023-03-03T04:09:22.541Z,82.60
2023-03-03T04:14:23.987Z,82.61
2023-03-03T04:19:25.504Z,82.86
2023-03-03T04:24:26.922Z,82.52
2023-03-03T04:29:28.544Z,81.07
2023-03-03T04:34:29.966Z,81.08
2023-03-03T04:39:32.820Z,81.58
2023-03-03T04:44:34.446Z,81.62
2023-03-03T04:49:36.446Z,81.78
2023-03-03T04:54:38.333Z,82.75
2023-03-03T04:59:39.893Z,82.55
2023-03-03T05:04:41.513Z,82.94
2023-03-03T05:09:43.202Z,82.73
2023-03-03T05:14:44.782Z,82.33
2023-03-03T05:19:46.225Z,82.43
2023-03-03T05:24:49.494Z,81.64
2023-03-03T05:29:51.454Z,82.58
2023-03-03T05:34:54.189Z,82.30
2023-03-03T05:39:55.731Z,81.94
2023-03-03T05:44:57.197Z,81.41
2023-03-03T05:49:58.859Z,81.62
2023-03-03T05:55:00.313Z,82.17
2023-03-03T06:00:06.283Z,82.02
2023-03-03T06:05:08.851Z,81.96
2023-03-03T06:10:11.217Z,82.30
2023-03-03T06:15:12.746Z,82.57
2023-03-03T06:20:14.288Z,82.10
2023-03-03T06:25:16.622Z,82.66
2023-03-03T06:30:18.988Z,82.65
2023-03-03T06:35:20.713Z,83.05
2023-03-03T06:40:22.563Z,83.07
2023-03-03T06:45:24.273Z,83.37
2023-03-03T06:50:25.703Z,82.64
2023-03-03T06:55:27.274Z,82.70
2023-03-03T07:00:31.265Z,83.65
2023-03-03T07:05:34.508Z,82.73
2023-03-03T07:10:36.135Z,82.86
2023-03-03T07:15:37.859Z,82.61
2023-03-03T07:20:41.090Z,82.74
2023-03-03T07:25:46.316Z,81.66
2023-03-03T07:30:47.946Z,81.85
2023-03-03T07:35:50.344Z,80.75
2023-03-03T07:40:54.627Z,80.18
2023-03-03T07:46:35.305Z,79.64
2023-03-03T07:51:39.674Z,79.61
2023-03-03T07:56:41.166Z,78.18
2023-03-03T08:01:46.223Z,78.66
2023-03-03T08:06:59.399Z,78.58
2023-03-03T08:12:07.096Z,77.72
2023-03-03T08:17:25.201Z,77.71
2023-03-03T08:22:36.197Z,76.69
2023-03-03T08:27:37.738Z,75.72
2023-03-03T08:32:39.356Z,75.30
2023-03-03T08:37:40.843Z,73.97
2023-03-03T08:42:42.603Z,72.81
2023-03-03T08:47:44.896Z,71.05
2023-03-03T08:52:47.317Z,67.90
2023-03-03T08:57:48.863Z,63.79
2023-03-03T09:02:51.051Z,62.03
2023-03-03T09:07:53.021Z,61.25
2023-03-03T09:12:58.225Z,57.93
2023-03-03T09:18:08.384Z,55.61
2023-03-03T09:23:31.190Z,56.05
2023-03-03T09:28:33.147Z,54.75
2023-03-03T09:33:43.954Z,54.60
2023-03-03T09:38:46.195Z,54.71
2023-03-03T09:44:18.510Z,55.73
2023-03-03T09:49:43.674Z,54.66
2023-03-03T09:55:03.568Z,54.08
2023-03-03T10:00:20.138Z,53.24
2023-03-03T10:05:34.789Z,52.01
2023-03-03T10:10:56.728Z,51.12
2023-03-03T10:16:29.478Z,50.92
2023-03-03T10:21:48.457Z,49.32
2023-03-03T10:27:13.578Z,48.20
2023-03-03T10:32:34.148Z,47.19
2023-03-03T10:37:47.562Z,45.95
2023-03-03T10:43:07.761Z,46.06
2023-03-03T10:48:31.029Z,46.27
2023-03-03T10:53:44.076Z,45.61
2023-03-03T10:59:11.216Z,45.89
2023-03-03T11:04:43.625Z,46.09
2023-03-03T11:10:05.893Z,44.62
2023-03-03T11:15:34.408Z,44.73
2023-03-03T11:20:43.117Z,45.43
2023-03-03T11:25:58.793Z,46.01
2023-03-03T11:31:19.658Z,45.93
2023-03-03T11:36:27.600Z,46.48
2023-03-03T11:41:39.732Z,46.42
2023-03-03T11:46:48.588Z,46.34
2023-03-03T11:52:03.041Z,46.43
2023-03-03T11:57:36.338Z,45.99
2023-03-03T12:03:02.310Z,46.16
2023-03-03T12:08:22.512Z,47.62
2023-03-03T12:13:36.722Z,48.08
2023-03-03T12:19:05.513Z,46.92
2023-03-03T12:24:25.432Z,47.75
2023-03-03T12:29:55.082Z,48.64
2023-03-03T12:35:12.311Z,48.40
2023-03-03T12:40:21.201Z,47.74
2023-03-03T12:45:44.018Z,48.27
2023-03-03T12:51:10.951Z,49.00
2023-03-03T12:56:18.620Z,48.28
2023-03-03T13:01:42.954Z,48.18
2023-03-03T13:06:59.858Z,48.46
2023-03-03T13:12:19.975Z,49.60
2023-03-03T13:17:21.530Z,49.43
2023-03-03T13:22:38.066Z,49.79
2023-03-03T13:27:45.564Z,50.09
2023-03-03T13:33:11.587Z,49.92
2023-03-03T13:38:18.383Z,49.68
2023-03-03T13:43:24.884Z,50.13
2023-03-03T13:48:44.815Z,50.90
2023-03-03T13:54:24.921Z,51.02
2023-03-03T13:59:32.392Z,51.04
2023-03-03T14:04:54.197Z,50.17
2023-03-03T14:10:17.087Z,50.57
2023-03-03T14:15:26.307Z,51.17
2023-03-03T14:20:34.727Z,51.44
2023-03-03T14:26:05.254Z,51.38
2023-03-03T14:31:15.631Z,51.14
2023-03-03T14:36:30.179Z,51.36
2023-03-03T14:41:39.626Z,51.07
2023-03-03T14:46:41.790Z,50.62
2023-03-03T14:51:49.116Z,50.78
2023-03-03T14:56:58.877Z,51.68
2023-03-03T15:02:28.811Z,50.98
2023-03-03T15:07:36.378Z,52.08
2023-03-03T15:12:42.185Z,51.01
2023-03-03T15:17:55.328Z,51.42
2023-03-03T15:23:32.554Z,51.48
2023-03-03T15:28:46.173Z,51.98
2023-03-03T15:33:55.963Z,52.29
2023-03-03T15:39:22.150Z,52.87
2023-03-03T15:44:38.406Z,52.61
2023-03-03T15:49:52.995Z,52.69
2023-03-03T15:55:17.309Z,52.58
2023-03-03T16:00:26.894Z,52.56
2023-03-03T16:05:53.989Z,52.91
2023-03-03T16:11:05.731Z,53.27
2023-03-03T16:16:25.643Z,53.95
2023-03-03T16:21:48.991Z,53.68
2023-03-03T16:27:12.668Z,53.98
2023-03-03T16:32:40.203Z,54.34
2023-03-03T16:38:19.501Z,54.21
2023-03-03T16:43:49.289Z,54.84
2023-03-03T16:49:02.507Z,55.55
2023-03-03T16:54:36.434Z,55.79
2023-03-03T17:00:25.465Z,56.20
2023-03-03T17:05:40.049Z,56.96
2023-03-03T17:11:00.110Z,57.52
2023-03-03T17:16:08.494Z,58.20
2023-03-03T17:21:25.022Z,57.99
2023-03-03T17:26:40.467Z,57.69
2023-03-03T17:32:12.134Z,59.04
2023-03-03T17:37:29.194Z,59.28
2023-03-03T17:42:39.888Z,59.50
2023-03-03T17:48:06.080Z,59.79
2023-03-03T17:53:25.752Z,59.72
2023-03-03T17:58:53.262Z,60.47
2023-03-03T18:04:15.792Z,60.04
2023-03-03T18:09:24.976Z,59.62
2023-03-03T18:14:54.375Z,60.32
2023-03-03T18:20:21.403Z,59.90
2023-03-03T18:26:11.926Z,60.74
2023-03-03T18:31:26.592Z,61.23
2023-03-03T18:36:27.997Z,61.86
2023-03-03T18:42:09.027Z,61.45
2023-03-03T18:47:11.203Z,61.26
2023-03-03T18:52:26.134Z,62.38
2023-03-03T18:57:28.110Z,62.63
2023-03-03T19:02:35.930Z,62.88
2023-03-03T19:07:40.364Z,63.60
2023-03-03T19:12:56.212Z,64.05
2023-03-03T19:18:18.316Z,64.26
2023-03-03T19:23:49.650Z,64.57
2023-03-03T19:28:59.180Z,64.89
2023-03-03T19:34:15.873Z,64.77
2023-03-03T19:39:46.104Z,65.83
2023-03-03T19:45:14.663Z,66.27
2023-03-03T19:50:18.250Z,66.77
2023-03-03T19:55:40.366Z,65.54
2023-03-03T20:00:46.032Z,66.25
2023-03-03T20:06:02.669Z,66.83
2023-03-03T20:11:15.935Z,67.78
2023-03-03T20:16:41.809Z,67.66
2023-03-03T20:22:09.000Z,67.75
2023-03-03T20:27:24.677Z,67.97
2023-03-03T20:32:42.434Z,68.03
2023-03-03T20:37:57.646Z,68.69
2023-03-03T20:43:14.353Z,68.83
2023-03-03T20:48:27.967Z,68.38
2023-03-03T20:53:51.164Z,68.88
2023-03-03T20:59:06.184Z,69.19
2023-03-03T21:04:18.604Z,69.96
2023-03-03T21:09:41.113Z,69.84
2023-03-03T21:14:42.553Z,69.72
2023-03-03T21:19:44.471Z,69.82
2023-03-03T21:24:53.459Z,70.43
2023-03-03T21:30:14.036Z,70.58
2023-03-03T21:35:18.392Z,70.83
2023-03-03T21:40:26.295Z,70.94
2023-03-03T21:45:27.861Z,70.77
2023-03-03T21:50:32.543Z,71.39
2023-03-03T21:55:33.979Z,70.90
2023-03-03T22:00:35.647Z,71.26
2023-03-03T22:05:37.142Z,71.13
2023-03-03T22:10:39.262Z,71.51
2023-03-03T22:15:40.712Z,71.71
2023-03-03T22:20:42.122Z,71.77
2023-03-03T22:25:43.519Z,71.69
2023-03-03T22:30:44.991Z,71.65
2023-03-03T22:35:46.576Z,71.91
2023-03-03T22:40:48.066Z,72.53
2023-03-03T22:45:50.525Z,73.47
2023-03-03T22:50:52.592Z,73.22
2023-03-03T22:55:54.366Z,73.51
2023-03-03T23:00:55.900Z,76.00
2023-03-03T23:05:57.318Z,75.90
2023-03-03T23:10:58.741Z,75.14
2023-03-03T23:16:00.369Z,74.55
2023-03-03T23:21:01.861Z,75.33
2023-03-03T23:26:03.476Z,75.63
2023-03-03T23:31:05.261Z,76.78
2023-03-03T23:36:08.250Z,76.40
2023-03-03T23:41:10.835Z,77.26
2023-03-03T23:46:12.497Z,76.47
2023-03-03T23:51:14.020Z,76.17
2023-03-03T23:56:15.407Z,76.31
